Time;durP1;ratioP1;P1;durP2;ratioP2;P2;SDS_P1;SDS_P2;PMS_P1;PMS_P2;Temp;Humidity;BMP_temperature;BMP_pressure;BME280_temperature;BME280_humidity;BME280_pressure;Samples;Min_cycle;Max_cycle;Signal;HPM_P1;HPM_P2
2023/04/12 00:02:53;;;;;;;4.20;1.37;;;13.00;81.10;;;;;;4970898;28;20464;-84
2023/04/12 00:05:36;;;;;;;3.53;1.80;;;13.00;80.90;;;;;;4978289;28;20494;-84
2023/04/12 00:08:45;;;;;;;1.87;1.47;;;12.90;81.80;;;;;;4988695;28;20483;-84
2023/04/12 00:11:22;;;;;;;2.70;1.17;;;12.90;81.50;;;;;;4986281;28;20500;-81
2023/04/12 00:13:53;;;;;;;3.63;1.63;;;12.90;81.60;;;;;;4974138;28;20458;-84
2023/04/12 00:16:35;;;;;;;5.60;1.57;;;12.80;82.20;;;;;;4992937;28;20509;-82
2023/04/12 00:19:05;;;;;;;2.20;1.10;;;12.70;82.20;;;;;;4967822;28;20710;-84
2023/04/12 00:22:00;;;;;;;2.43;1.57;;;12.70;82.90;;;;;;4957871;28;20490;-84
2023/04/12 00:24:30;;;;;;;6.60;3.10;;;12.50;83.00;;;;;;4950962;28;21066;-84
2023/04/12 00:27:04;;;;;;;7.33;1.83;;;12.60;84.00;;;;;;4962733;28;20527;-81
2023/04/12 00:30:07;;;;;;;2.03;1.20;;;12.60;84.30;;;;;;4969424;28;20490;-82
2023/04/12 00:32:46;;;;;;;1.63;1.40;;;12.60;83.70;;;;;;4964663;28;20441;-80
2023/04/12 00:35:21;;;;;;;4.10;1.33;;;12.60;83.40;;;;;;4967453;28;20488;-81
2023/04/12 00:38:09;;;;;;;2.17;1.47;;;12.40;84.30;;;;;;4974874;28;20460;-81
2023/04/12 00:40:46;;;;;;;3.20;1.37;;;12.40;85.30;;;;;;4971328;28;20569;-82
2023/04/12 00:43:17;;;;;;;4.80;1.73;;;12.40;86.30;;;;;;4963751;28;20492;-84
2023/04/12 00:46:02;;;;;;;2.67;1.63;;;12.40;87.30;;;;;;4959307;28;20476;-81
2023/04/12 00:48:39;;;;;;;1.43;1.00;;;12.30;87.90;;;;;;4940427;28;20479;-81
2023/04/12 00:51:08;;;;;;;2.20;1.03;;;12.30;89.30;;;;;;4957076;28;20456;-82
2023/04/12 00:53:44;;;;;;;1.70;1.00;;;12.00;89.80;;;;;;4959893;28;21080;-82
2023/04/12 00:56:27;;;;;;;3.20;1.30;;;12.00;90.50;;;;;;4953856;28;20564;-81
2023/04/12 00:59:06;;;;;;;1.23;1.00;;;12.00;90.70;;;;;;4968049;28;20531;-82
2023/04/12 01:01:58;;;;;;;1.77;1.20;;;11.90;90.90;;;;;;4976086;28;20490;-83
2023/04/12 01:09:29;;;;;;;4.23;1.10;;;12.00;91.20;;;;;;4951791;28;20488;-80
2023/04/12 01:12:50;;;;;;;1.83;1.63;;;12.00;91.90;;;;;;4966184;28;21286;-85
2023/04/12 01:19:22;;;;;;;4.90;1.47;;;11.90;92.30;;;;;;4976090;28;20457;-83
2023/04/12 01:22:26;;;;;;;2.20;1.10;;;11.90;92.70;;;;;;4916224;29;20490;-82
2023/04/12 01:25:56;;;;;;;;;;;;;;;;;;;;;
2023/04/12 01:29:16;;;;;;;1.90;1.30;;;11.80;92.70;;;;;;4919797;29;20485;-84
2023/04/12 01:32:19;;;;;;;2.13;1.10;;;11.80;93.30;;;;;;4921164;29;20459;-83
2023/04/12 01:35:11;;;;;;;1.20;1.10;;;11.70;93.80;;;;;;4908149;29;20615;-83
2023/04/12 01:38:27;;;;;;;2.57;1.17;;;11.60;94.30;;;;;;4911610;29;20449;-84
2023/04/12 01:44:33;;;;;;;2.10;1.00;;;11.50;94.70;;;;;;5088339;22;20544;-82
2023/04/12 01:54:56;;;;;;;3.00;2.07;;;11.50;96.00;;;;;;5003368;28;20471;-85
2023/04/12 01:58:29;;;;;;;4.00;1.37;;;11.40;96.00;;;;;;4956410;28;20472;-83
2023/04/12 02:04:39;;;;;;;1.40;1.00;;;11.50;96.90;;;;;;4957455;28;20480;-84
2023/04/12 02:07:32;;;;;;;1.83;0.87;;;11.50;96.90;;;;;;4941925;28;20522;-83
2023/04/12 02:10:11;;;;;;;1.00;0.80;;;11.50;97.20;;;;;;4958268;28;21091;-82
2023/04/12 02:13:19;;;;;;;1.47;0.90;;;11.30;97.00;;;;;;4956806;28;20550;-83
2023/04/12 02:16:53;;;;;;;1.37;0.70;;;11.40;97.00;;;;;;4995694;28;20486;-82
2023/04/12 02:24:06;;;;;;;5.07;1.20;;;11.30;97.20;;;;;;4959312;28;20468;-84
2023/04/12 02:27:03;;;;;;;;;;;;;;;;;;;;;
2023/04/12 02:29:43;;;;;;;1.40;1.30;;;11.40;97.60;;;;;;4957623;28;20616;-82
2023/04/12 02:32:56;;;;;;;3.33;1.83;;;11.40;97.60;;;;;;4945646;28;20468;-82
2023/04/12 02:36:22;;;;;;;4.67;1.23;;;11.40;98.00;;;;;;4975887;28;20537;-82
2023/04/12 02:39:24;;;;;;;4.17;1.30;;;11.20;98.50;;;;;;4984042;28;20466;-83
2023/04/12 02:42:32;;;;;;;5.63;1.20;;;11.10;99.30;;;;;;4983086;28;20474;-85
2023/04/12 02:45:19;;;;;;;3.40;1.30;;;10.90;99.90;;;;;;4967816;28;20913;-85
2023/04/12 02:52:43;;;;;;;3.80;1.30;;;11.00;99.90;;;;;;4939139;28;20445;-83
2023/04/12 02:55:51;;;;;;;1.70;1.60;;;10.80;99.90;;;;;;4937433;28;20477;-85
2023/04/12 02:59:26;;;;;;;2.00;1.40;;;10.70;99.90;;;;;;4950982;28;20446;-82
2023/04/12 03:02:10;;;;;;;3.10;1.33;;;10.60;99.90;;;;;;4986750;28;20458;-83
2023/04/12 03:08:47;;;;;;;3.70;1.53;;;10.60;99.90;;;;;;4954955;28;21071;-84
2023/04/12 03:11:54;;;;;;;3.50;1.90;;;10.50;99.90;;;;;;4982741;28;20533;-82
2023/04/12 03:17:58;;;;;;;2.63;1.33;;;10.50;99.90;;;;;;4978619;28;20459;-84
2023/04/12 03:20:49;;;;;;;3.33;1.53;;;10.40;99.90;;;;;;4979065;28;20526;-81
2023/04/12 03:23:55;;;;;;;3.80;1.37;;;10.40;99.90;;;;;;4980652;28;20458;-83
2023/04/12 03:27:06;;;;;;;;;;;;;;;;;;;;;
2023/04/12 03:33:27;;;;;;;3.70;1.53;;;10.50;99.90;;;;;;4978435;28;20994;-83
2023/04/12 03:37:09;;;;;;;2.93;1.63;;;10.50;99.90;;;;;;4964515;28;20462;-83
2023/04/12 03:40:24;;;;;;;3.20;1.40;;;10.30;99.90;;;;;;4976532;28;20526;-82
2023/04/12 03:43:34;;;;;;;3.63;1.47;;;10.40;99.90;;;;;;4979216;28;20558;-83
2023/04/12 03:46:23;;;;;;;4.50;1.87;;;10.40;99.90;;;;;;4975967;28;20494;-84
2023/04/12 03:50:07;;;;;;;2.53;2.40;;;10.30;99.90;;;;;;4980535;28;20495;-84
2023/04/12 03:53:16;;;;;;;4.00;1.50;;;10.30;99.90;;;;;;4951273;28;20469;-84
2023/04/12 03:56:24;;;;;;;2.30;1.20;;;10.40;99.90;;;;;;4960946;28;20480;-83
2023/04/12 03:59:56;;;;;;;3.53;1.50;;;10.30;99.90;;;;;;4958470;28;20545;-83
2023/04/12 04:03:01;;;;;;;3.07;1.90;;;10.20;99.90;;;;;;4939363;28;20492;-83
2023/04/12 04:06:20;;;;;;;6.20;2.23;;;10.20;99.90;;;;;;4962458;28;20499;-83
2023/04/12 04:09:16;;;;;;;1.40;1.30;;;10.20;99.90;;;;;;4971385;28;20496;-84
2023/04/12 04:12:17;;;;;;;2.83;1.90;;;10.10;99.90;;;;;;4943512;28;21152;-84
2023/04/12 04:19:14;;;;;;;5.13;1.80;;;10.20;99.90;;;;;;4967688;28;20445;-83
2023/04/12 04:22:31;;;;;;;1.87;1.60;;;10.30;99.90;;;;;;4950289;28;20571;-79
2023/04/12 04:25:45;;;;;;;3.53;1.40;;;10.30;99.90;;;;;;4925897;29;20490;-83
2023/04/12 04:32:21;;;;;;;1.63;1.47;;;10.30;99.90;;;;;;4951200;28;20492;-84
2023/04/12 04:39:23;;;;;;;2.90;1.87;;;10.20;99.90;;;;;;4947840;28;20488;-81
2023/04/12 04:45:53;;;;;;;1.60;1.50;;;10.30;99.90;;;;;;4941367;28;20511;-84
2023/04/12 04:48:40;;;;;;;6.20;1.90;;;10.30;99.90;;;;;;4926155;28;20492;-84
2023/04/12 04:51:41;;;;;;;3.40;2.17;;;10.30;99.90;;;;;;4941224;28;20612;-84
2023/04/12 04:54:56;;;;;;;3.60;1.97;;;10.30;99.90;;;;;;4906889;29;20486;-84
2023/04/12 04:58:04;;;;;;;3.73;1.73;;;10.20;99.90;;;;;;4931534;28;20544;-84
2023/04/12 05:01:12;;;;;;;2.50;1.30;;;10.40;99.90;;;;;;4944314;28;20472;-84
2023/04/12 05:04:26;;;;;;;3.37;1.60;;;10.40;99.90;;;;;;4987221;28;20510;-85
2023/04/12 05:07:28;;;;;;;4.13;2.67;;;10.30;99.90;;;;;;4988524;28;20820;-80
2023/04/12 05:10:32;;;;;;;1.90;1.57;;;10.20;99.90;;;;;;4988993;28;20514;-82
2023/04/12 05:13:34;;;;;;;5.87;1.90;;;10.30;99.90;;;;;;4981965;28;20483;-82
2023/04/12 05:16:28;;;;;;;1.90;1.70;;;10.40;99.90;;;;;;5000469;28;20487;-83
2023/04/12 05:19:42;;;;;;;2.87;2.20;;;10.30;99.90;;;;;;4995068;28;20574;-83
2023/04/12 05:22:48;;;;;;;2.87;1.90;;;10.30;99.90;;;;;;4999739;28;20454;-82
2023/04/12 05:26:09;;;;;;;4.73;1.67;;;10.40;99.90;;;;;;4995645;28;20570;-83
2023/04/12 05:29:09;;;;;;;3.20;2.00;;;10.20;99.90;;;;;;4970684;28;20497;-84
2023/04/12 05:31:56;;;;;;;3.70;2.53;;;10.30;99.90;;;;;;4988716;28;20451;-83
2023/04/12 05:35:30;;;;;;;;;;;;;;;;;;;;;
2023/04/12 05:38:30;;;;;;;3.77;1.87;;;10.10;99.90;;;;;;4973111;28;20474;-81
2023/04/12 05:41:48;;;;;;;3.83;2.33;;;10.10;99.90;;;;;;4980722;28;20998;-83
2023/04/12 05:44:55;;;;;;;2.03;1.80;;;10.20;99.90;;;;;;4972311;28;20475;-85
2023/04/12 05:51:40;;;;;;;;;;;;;;;;;;;;;
2023/04/12 05:55:13;;;;;;;2.30;1.37;;;10.10;99.90;;;;;;4981258;28;20450;-84
2023/04/12 05:58:09;;;;;;;4.73;1.80;;;10.10;99.90;;;;;;4990736;28;20868;-84
2023/04/12 06:05:15;;;;;;;2.40;1.60;;;10.30;99.90;;;;;;4970588;28;20467;-84
2023/04/12 06:08:11;;;;;;;2.50;1.90;;;10.20;99.90;;;;;;4986838;28;20485;-82
2023/04/12 06:10:53;;;;;;;3.23;1.57;;;10.10;99.90;;;;;;4979543;28;21223;-83
2023/04/12 06:14:02;;;;;;;1.47;1.37;;;10.20;99.90;;;;;;4971251;28;20467;-82
2023/04/12 06:16:51;;;;;;;1.70;1.60;;;10.10;99.90;;;;;;4978525;28;20454;-84
2023/04/12 06:19:33;;;;;;;2.17;1.93;;;10.20;99.90;;;;;;4975473;28;20819;-83
2023/04/12 06:22:30;;;;;;;2.13;1.67;;;10.10;99.90;;;;;;4978446;28;20528;-82
2023/04/12 06:25:31;;;;;;;1.53;1.40;;;10.10;99.90;;;;;;4985202;28;20485;-82
2023/04/12 06:28:41;;;;;;;3.23;1.60;;;10.10;99.90;;;;;;4961206;28;20479;-82
2023/04/12 06:31:21;;;;;;;3.83;2.40;;;10.20;99.90;;;;;;4987674;28;20443;-83
2023/04/12 06:33:59;;;;;;;2.40;1.47;;;10.30;99.90;;;;;;4981873;28;20446;-82
2023/04/12 06:37:01;;;;;;;3.13;1.90;;;10.30;99.90;;;;;;4983912;28;20438;-82
2023/04/12 06:39:51;;;;;;;2.40;1.70;;;10.20;99.90;;;;;;4983071;28;20470;-84
2023/04/12 06:42:28;;;;;;;2.20;1.77;;;10.10;99.90;;;;;;4979402;28;20459;-82
2023/04/12 06:45:00;;;;;;;1.40;1.30;;;10.20;99.90;;;;;;4978904;28;20845;-84
2023/04/12 06:51:12;;;;;;;3.23;1.77;;;10.30;99.90;;;;;;4988216;28;20451;-80
2023/04/12 06:58:16;;;;;;;3.40;1.57;;;10.30;99.90;;;;;;4919877;29;20471;-82
2023/04/12 07:01:05;;;;;;;7.03;4.03;;;10.30;99.90;;;;;;4925876;28;20501;-82
2023/04/12 07:04:12;;;;;;;1.50;1.40;;;10.40;99.90;;;;;;4985371;28;20422;-85
2023/04/12 07:07:13;;;;;;;1.70;1.17;;;10.40;99.90;;;;;;4980076;28;20467;-83
2023/04/12 07:10:37;;;;;;;1.50;1.20;;;10.40;99.90;;;;;;4981974;28;20493;-83
2023/04/12 07:13:38;;;;;;;6.60;1.20;;;10.40;99.90;;;;;;4996878;28;20459;-83
2023/04/12 07:16:23;;;;;;;2.03;1.50;;;10.60;99.90;;;;;;4994436;28;20590;-83
2023/04/12 07:19:15;;;;;;;1.60;1.33;;;10.40;99.90;;;;;;4977998;28;20435;-83
2023/04/12 07:22:24;;;;;;;1.33;1.23;;;10.50;99.90;;;;;;4978099;28;20806;-84
2023/04/12 07:25:19;;;;;;;2.27;1.30;;;10.50;99.90;;;;;;4923100;29;20499;-84
2023/04/12 07:28:25;;;;;;;3.03;1.60;;;10.50;99.90;;;;;;4924277;29;20500;-84
2023/04/12 07:35:41;;;;;;;2.30;1.53;;;10.60;99.90;;;;;;4794760;29;20628;-83
2023/04/12 07:38:54;;;;;;;1.60;1.27;;;10.60;99.90;;;;;;4816365;29;20625;-83
2023/04/12 07:42:13;;;;;;;1.33;1.10;;;10.60;99.90;;;;;;4807957;29;20447;-81
2023/04/12 07:45:12;;;;;;;1.73;1.53;;;10.60;99.90;;;;;;4819784;29;20518;-82
2023/04/12 07:48:12;;;;;;;1.87;1.07;;;10.50;99.90;;;;;;4824019;29;20497;-83
2023/04/12 07:51:29;;;;;;;;;;;;;;;;;;;;;
2023/04/12 07:54:45;;;;;;;0.80;0.80;;;10.70;99.90;;;;;;4796470;29;21786;-83
2023/04/12 07:57:37;;;;;;;2.90;1.10;;;10.70;99.90;;;;;;4868278;29;20482;-83
2023/04/12 08:00:58;;;;;;;;;;;;;;;;;;;;;
2023/04/12 08:04:23;;;;;;;1.50;1.10;;;10.70;99.90;;;;;;4889584;29;20518;-82
2023/04/12 08:07:39;;;;;;;2.37;1.40;;;10.80;99.90;;;;;;4832700;29;20455;-83
2023/04/12 08:11:11;;;;;;;;;;;;;;;;;;;;;
2023/04/12 08:14:23;;;;;;;0.93;0.93;;;10.80;99.90;;;;;;4775771;29;20554;-81
2023/04/12 08:17:48;;;;;;;3.93;1.00;;;10.90;99.90;;;;;;4821183;29;21047;-83
2023/04/12 08:21:25;;;;;;;0.97;0.87;;;10.90;99.90;;;;;;4813745;29;20453;-82
2023/04/12 08:27:29;;;;;;;1.60;1.50;;;11.00;99.90;;;;;;4806157;29;20864;-82
2023/04/12 08:31:00;;;;;;;1.27;1.17;;;11.20;99.90;;;;;;4832520;29;20503;-82
2023/04/12 08:34:17;;;;;;;0.90;0.90;;;11.40;99.90;;;;;;4837843;29;20538;-83
2023/04/12 08:38:06;;;;;;;0.87;0.87;;;11.40;99.90;;;;;;4837005;29;21072;-82
2023/04/12 08:44:58;;;;;;;2.47;1.20;;;11.50;99.90;;;;;;4883072;29;20481;-83
2023/04/12 08:47:51;;;;;;;1.37;1.27;;;11.50;99.90;;;;;;4908342;29;20481;-82
2023/04/12 08:50:35;;;;;;;1.10;1.00;;;11.50;99.90;;;;;;4909147;29;21164;-81
2023/04/12 08:56:52;;;;;;;;;;;;;;;;;;;;;
2023/04/12 09:03:19;;;;;;;1.40;1.13;;;11.50;99.90;;;;;;4991657;28;20453;-83
2023/04/12 09:06:31;;;;;;;2.53;1.37;;;11.80;99.90;;;;;;4995493;28;20505;-81
2023/04/12 09:09:48;;;;;;;2.63;1.33;;;11.90;99.90;;;;;;4891533;29;20499;-82
2023/04/12 09:12:55;;;;;;;1.27;1.17;;;11.90;99.90;;;;;;4899734;29;20498;-82
2023/04/12 09:16:06;;;;;;;1.10;1.00;;;11.80;99.90;;;;;;4911068;29;20519;-83
2023/04/12 09:19:17;;;;;;;1.87;1.53;;;12.00;99.90;;;;;;4904658;29;20493;-83
2023/04/12 09:25:54;;;;;;;1.17;1.07;;;12.00;99.90;;;;;;4917490;29;20493;-82
2023/04/12 09:28:59;;;;;;;1.47;1.20;;;11.80;99.90;;;;;;4982390;28;20483;-82
2023/04/12 09:32:22;;;;;;;1.33;1.10;;;11.70;99.90;;;;;;4975875;28;20458;-84
2023/04/12 09:35:48;;;;;;;;;;;;;;;;;;;;;
2023/04/12 09:39:07;;;;;;;3.53;1.47;;;12.00;99.90;;;;;;4958282;28;21070;-83
2023/04/12 09:42:10;;;;;;;1.57;1.47;;;12.00;99.90;;;;;;4997280;28;20494;-84
2023/04/12 09:45:03;;;;;;;1.27;1.17;;;12.10;99.90;;;;;;4976073;28;20482;-81
2023/04/12 09:47:46;;;;;;;3.60;1.70;;;12.20;99.90;;;;;;4988346;28;20459;-81
2023/04/12 09:50:28;;;;;;;1.60;1.50;;;12.10;99.90;;;;;;4980198;28;20535;-85
2023/04/12 09:53:18;;;;;;;1.10;1.00;;;12.20;99.90;;;;;;4989971;28;20526;-85
2023/04/12 09:56:01;;;;;;;2.53;1.87;;;12.10;99.90;;;;;;4992033;28;20545;-81
2023/04/12 09:58:42;;;;;;;2.17;1.40;;;12.00;99.90;;;;;;4996408;28;20541;-84
2023/04/12 10:01:15;;;;;;;1.33;1.20;;;12.10;99.90;;;;;;4989257;28;20470;-82
2023/04/12 10:03:48;;;;;;;2.40;2.00;;;12.10;99.90;;;;;;4987478;28;20555;-84
2023/04/12 10:06:25;;;;;;;1.30;1.20;;;12.10;99.90;;;;;;4980075;28;21015;-83
2023/04/12 10:09:01;;;;;;;1.30;1.20;;;12.10;99.90;;;;;;4986836;28;20514;-82
2023/04/12 10:11:45;;;;;;;2.13;1.60;;;12.10;99.90;;;;;;4982959;28;20538;-85
2023/04/12 10:14:26;;;;;;;1.73;1.43;;;12.30;99.90;;;;;;4980361;28;20454;-82
2023/04/12 10:17:06;;;;;;;1.70;1.60;;;12.40;99.90;;;;;;4989062;28;20462;-82
2023/04/12 10:19:36;;;;;;;2.67;1.50;;;12.30;99.90;;;;;;4986636;28;21950;-85
2023/04/12 10:22:16;;;;;;;1.67;1.57;;;12.20;99.90;;;;;;5002564;28;21164;-82
2023/04/12 10:24:59;;;;;;;1.40;1.30;;;12.20;99.90;;;;;;4988473;28;20514;-82
2023/04/12 10:27:43;;;;;;;1.60;1.50;;;12.20;99.90;;;;;;4996653;28;21363;-81
2023/04/12 10:30:30;;;;;;;1.63;1.50;;;12.20;99.90;;;;;;4979095;28;21052;-83
2023/04/12 10:33:03;;;;;;;4.50;1.50;;;12.20;99.90;;;;;;4964718;28;20446;-80
2023/04/12 10:36:05;;;;;;;1.47;1.20;;;12.40;99.90;;;;;;4989130;28;20548;-81
2023/04/12 10:39:13;;;;;;;2.27;1.40;;;12.50;99.90;;;;;;5001814;28;20486;-82
2023/04/12 10:42:19;;;;;;;2.40;2.00;;;12.50;99.90;;;;;;4980362;28;20542;-83
2023/04/12 10:45:20;;;;;;;2.40;2.00;;;12.60;99.90;;;;;;4999906;28;20557;-83
2023/04/12 10:48:07;;;;;;;;;;;;;;;;;;;;;
2023/04/12 10:51:01;;;;;;;;;;;;;;;;;;;;;
2023/04/12 10:53:45;;;;;;;2.67;1.57;;;12.20;99.90;;;;;;4988127;28;20439;-82
2023/04/12 10:56:33;;;;;;;2.40;2.20;;;12.10;99.90;;;;;;4999936;28;20517;-79
2023/04/12 10:59:04;;;;;;;3.50;2.10;;;12.20;99.90;;;;;;4998291;28;20594;-83
2023/04/12 11:01:41;;;;;;;2.07;1.83;;;12.10;99.90;;;;;;5000683;28;20499;-80
2023/04/12 11:04:30;;;;;;;1.27;1.00;;;12.30;99.90;;;;;;4998084;28;20463;-81
2023/04/12 11:07:03;;;;;;;1.70;1.50;;;12.10;99.90;;;;;;4998505;28;20467;-82
2023/04/12 11:10:11;;;;;;;1.23;1.13;;;11.90;99.90;;;;;;4992665;28;20471;-82
2023/04/12 11:13:07;;;;;;;1.90;1.10;;;12.00;99.90;;;;;;5010202;28;20485;-81
2023/04/12 11:15:42;;;;;;;1.27;1.00;;;12.10;99.90;;;;;;4997010;28;20470;-82
2023/04/12 11:18:13;;;;;;;1.13;1.00;;;12.10;99.90;;;;;;4998008;28;20501;-81
2023/04/12 11:21:07;;;;;;;1.40;1.30;;;12.20;99.90;;;;;;4994479;28;20471;-85
2023/04/12 11:24:10;;;;;;;1.80;1.40;;;12.20;99.90;;;;;;4989057;28;20445;-85
2023/04/12 11:31:07;;;;;;;2.20;2.00;;;12.30;99.90;;;;;;4990027;28;20455;-86
2023/04/12 11:34:26;;;;;;;2.97;2.00;;;12.40;99.90;;;;;;4991664;28;20450;-85
2023/04/12 11:37:03;;;;;;;2.97;2.27;;;12.50;99.90;;;;;;4986894;28;21632;-84
2023/04/12 11:40:05;;;;;;;3.00;2.20;;;12.60;99.90;;;;;;5001219;28;20655;-84
2023/04/12 11:42:41;;;;;;;3.87;2.30;;;12.80;99.90;;;;;;4990256;28;20494;-84
2023/04/12 11:46:19;;;;;;;4.53;2.27;;;12.80;99.90;;;;;;4986894;28;20466;-84
2023/04/12 11:49:50;;;;;;;2.07;1.77;;;13.10;99.90;;;;;;4996877;28;20624;-81
2023/04/12 11:53:18;;;;;;;2.60;2.40;;;13.10;99.90;;;;;;4982469;28;20542;-85
2023/04/12 11:55:54;;;;;;;1.97;1.80;;;13.20;99.90;;;;;;4984801;28;20483;-83
2023/04/12 11:59:37;;;;;;;2.50;1.90;;;13.20;99.90;;;;;;4928852;28;20536;-84
2023/04/12 12:02:16;;;;;;;3.20;2.37;;;13.20;99.90;;;;;;4929344;28;20464;-82
2023/04/12 12:08:27;;;;;;;3.33;2.00;;;13.20;99.90;;;;;;4928120;28;20473;-83
2023/04/12 12:11:26;;;;;;;3.60;2.03;;;13.30;99.90;;;;;;4944836;28;20492;-84
2023/04/12 12:14:57;;;;;;;;;;;;;;;;;;;;;
2023/04/12 12:18:01;;;;;;;2.77;1.57;;;13.40;99.90;;;;;;4987832;28;20533;-84
2023/04/12 12:20:56;;;;;;;2.97;1.60;;;13.40;99.90;;;;;;4986879;28;20485;-84
2023/04/12 12:23:36;;;;;;;2.97;1.70;;;13.60;99.80;;;;;;4987569;28;21121;-84
2023/04/12 12:26:06;;;;;;;2.03;1.40;;;13.60;99.50;;;;;;4984267;28;20490;-83
2023/04/12 12:28:55;;;;;;;3.00;1.50;;;13.80;99.50;;;;;;4987808;28;20462;-84
2023/04/12 12:55:14;;;;;;;2.63;1.30;;;14.90;95.30;;;;;;5241139;22;21661;-84
2023/04/12 12:58:42;;;;;;;3.83;1.47;;;15.20;95.10;;;;;;4966471;28;20493;-83
2023/04/12 13:01:50;;;;;;;1.87;0.90;;;15.30;94.20;;;;;;4926230;29;20476;-84
2023/04/12 13:16:47;;;;;;;2.80;1.20;;;14.90;92.40;;;;;;4932106;29;20542;-83
2023/04/12 13:24:37;;;;;;;;;;;;;;;;;;;;;
2023/04/12 13:28:07;;;;;;;2.93;1.53;;;14.80;90.20;;;;;;4931555;28;20542;-85
2023/04/12 13:31:13;;;;;;;3.90;1.13;;;14.70;90.80;;;;;;4904798;29;20571;-82
2023/04/12 13:34:26;;;;;;;2.87;1.70;;;14.80;90.90;;;;;;4848822;29;20473;-82
2023/04/12 13:37:07;;;;;;;3.10;1.20;;;14.40;90.90;;;;;;4879376;29;20514;-85
2023/04/12 13:39:45;;;;;;;4.80;1.57;;;14.30;91.20;;;;;;4928219;29;20514;-85
2023/04/12 13:42:30;;;;;;;5.30;1.70;;;14.20;91.60;;;;;;4921870;29;20468;-84
2023/04/12 13:45:11;;;;;;;4.50;1.60;;;14.20;91.50;;;;;;4935357;28;20496;-83
2023/04/12 13:47:41;;;;;;;3.50;2.10;;;14.30;91.70;;;;;;4925931;28;20511;-84
2023/04/12 13:50:25;;;;;;;5.03;2.30;;;15.10;90.60;;;;;;4987411;28;20498;-82
2023/04/12 13:53:08;;;;;;;3.07;1.47;;;15.10;90.40;;;;;;4982644;28;20751;-84
2023/04/12 13:55:50;;;;;;;4.70;1.30;;;15.30;90.40;;;;;;4985554;28;20483;-84
2023/04/12 13:58:25;;;;;;;6.13;2.10;;;15.80;90.20;;;;;;5002816;28;20459;-85
2023/04/12 14:01:22;;;;;;;5.33;1.53;;;16.00;87.50;;;;;;5000384;28;20442;-85
2023/04/12 14:04:22;;;;;;;5.10;1.33;;;16.20;86.20;;;;;;4963007;28;20466;-83
2023/04/12 14:07:19;;;;;;;3.17;1.43;;;16.20;85.30;;;;;;4972594;28;20452;-85
2023/04/12 14:09:52;;;;;;;4.53;2.13;;;16.30;84.40;;;;;;4997969;28;20476;-85
2023/04/12 14:12:50;;;;;;;4.10;1.63;;;16.10;83.30;;;;;;4974040;28;20538;-87
2023/04/12 14:15:40;;;;;;;3.20;1.20;;;16.20;83.40;;;;;;4978139;28;20460;-83
2023/04/12 14:18:26;;;;;;;5.03;1.40;;;16.20;81.10;;;;;;4984257;28;20456;-84
2023/04/12 14:21:28;;;;;;;4.80;2.00;;;16.20;80.90;;;;;;4980996;28;20452;-85
2023/04/12 14:24:12;;;;;;;2.10;1.73;;;16.10;80.60;;;;;;4977117;28;20463;-83
2023/04/12 14:27:16;;;;;;;3.10;1.50;;;16.00;79.70;;;;;;4974087;28;21949;-85
2023/04/12 14:30:25;;;;;;;6.43;2.07;;;15.80;80.20;;;;;;4975409;28;21251;-84
2023/04/12 14:33:06;;;;;;;2.57;1.60;;;15.70;81.20;;;;;;4977840;28;20519;-84
2023/04/12 14:35:47;;;;;;;7.60;1.90;;;15.60;80.90;;;;;;4978882;28;20579;-85
2023/04/12 14:38:45;;;;;;;8.70;2.10;;;15.40;80.20;;;;;;4978858;28;20440;-82
2023/04/12 14:41:46;;;;;;;7.60;2.13;;;15.20;82.20;;;;;;4964347;28;20503;-86
2023/04/12 14:47:48;;;;;;;5.57;4.03;;;15.60;88.70;;;;;;4963594;28;21105;-84
2023/04/12 14:50:54;;;;;;;4.47;2.40;;;15.60;89.20;;;;;;4976796;28;20955;-84
2023/04/12 14:53:51;;;;;;;3.13;1.70;;;15.60;87.80;;;;;;4966067;28;20470;-85
2023/04/12 14:56:41;;;;;;;3.07;1.60;;;15.50;87.50;;;;;;4951764;28;20479;-84
2023/04/12 14:59:45;;;;;;;3.20;1.60;;;15.60;87.50;;;;;;4980585;28;20487;-85
2023/04/12 15:03:00;;;;;;;3.47;1.70;;;15.70;86.60;;;;;;4980551;28;20642;-85
2023/04/12 15:06:15;;;;;;;8.63;2.10;;;15.60;85.80;;;;;;4977970;28;21057;-85
2023/04/12 15:09:00;;;;;;;5.23;1.77;;;15.50;86.20;;;;;;4980136;28;20471;-86
2023/04/12 15:12:24;;;;;;;2.90;1.63;;;15.20;86.30;;;;;;4965208;28;20579;-84
2023/04/12 15:15:21;;;;;;;3.73;1.30;;;14.90;87.60;;;;;;4966868;28;20539;-86
2023/04/12 15:18:09;;;;;;;3.37;1.33;;;14.90;87.70;;;;;;4964740;28;21042;-82
2023/04/12 15:20:42;;;;;;;3.40;1.37;;;14.50;90.00;;;;;;4969898;28;21041;-85
2023/04/12 15:23:20;;;;;;;2.70;1.23;;;14.00;90.80;;;;;;4982396;28;20574;-85
2023/04/12 15:26:13;;;;;;;5.60;1.83;;;13.70;92.30;;;;;;4980644;28;20476;-86
2023/04/12 15:28:53;;;;;;;5.20;2.47;;;13.50;94.00;;;;;;4973801;28;20547;-87
2023/04/12 15:31:49;;;;;;;1.87;1.20;;;13.40;94.80;;;;;;4983236;28;20482;-84
2023/04/12 15:35:09;;;;;;;2.70;1.10;;;13.30;95.40;;;;;;4968043;28;20786;-84
2023/04/12 15:38:20;;;;;;;2.63;1.40;;;13.30;95.50;;;;;;4980863;28;20851;-84
2023/04/12 15:41:18;;;;;;;2.30;1.70;;;13.20;95.80;;;;;;4997252;28;20583;-84
2023/04/12 15:47:24;;;;;;;2.90;1.30;;;13.30;96.20;;;;;;4982284;28;20523;-86
2023/04/12 15:50:11;;;;;;;2.93;1.37;;;13.40;96.50;;;;;;4998418;28;20490;-86
2023/04/12 15:53:42;;;;;;;5.10;1.47;;;13.60;96.20;;;;;;4998433;28;20468;-87
2023/04/12 15:56:24;;;;;;;2.53;1.20;;;13.80;96.40;;;;;;4982380;28;20469;-86
2023/04/12 15:59:27;;;;;;;4.00;1.83;;;13.90;96.00;;;;;;4975638;28;20464;-86
2023/04/12 16:02:28;;;;;;;3.03;1.60;;;13.90;96.00;;;;;;4980134;28;20594;-85
2023/04/12 16:05:17;;;;;;;3.10;1.70;;;13.80;95.90;;;;;;4985321;28;20491;-84
2023/04/12 16:08:26;;;;;;;;;;;;;;;;;;;;;
2023/04/12 16:11:32;;;;;;;3.87;1.77;;;13.70;94.30;;;;;;4928690;29;20481;-85
2023/04/12 16:14:32;;;;;;;3.87;1.70;;;13.50;94.40;;;;;;4933680;29;20525;-85
2023/04/12 16:17:25;;;;;;;2.60;2.00;;;13.40;95.10;;;;;;4917067;29;20623;-85
2023/04/12 16:20:47;;;;;;;3.60;1.30;;;13.30;94.70;;;;;;4934597;29;20461;-84
2023/04/12 16:23:50;;;;;;;1.80;1.17;;;13.30;94.70;;;;;;4911884;29;20437;-86
2023/04/12 16:26:48;;;;;;;2.70;1.27;;;13.30;93.90;;;;;;4947517;28;20486;-87
2023/04/12 16:29:40;;;;;;;1.33;0.77;;;13.10;92.50;;;;;;4936349;29;20445;-85
2023/04/12 16:32:28;;;;;;;1.53;0.80;;;13.00;92.60;;;;;;4948360;28;20462;-85
2023/04/12 16:35:09;;;;;;;2.73;1.10;;;12.90;93.00;;;;;;4942605;28;20559;-83
2023/04/12 16:37:36;;;;;;;0.50;0.50;;;12.80;93.00;;;;;;4937620;28;20646;-85
2023/04/12 16:40:11;;;;;;;0.80;0.70;;;12.70;93.30;;;;;;4932683;29;21321;-85
2023/04/12 16:42:58;;;;;;;1.30;0.90;;;12.70;93.00;;;;;;4912828;29;20474;-85
2023/04/12 16:49:29;;;;;;;1.60;1.00;;;12.60;93.70;;;;;;4968854;28;20463;-84
2023/04/12 16:52:38;;;;;;;2.30;1.10;;;12.50;93.40;;;;;;4969561;28;20916;-84
2023/04/12 16:56:00;;;;;;;1.43;1.03;;;12.50;93.70;;;;;;4991897;28;20510;-83
2023/04/12 16:59:11;;;;;;;1.87;1.07;;;12.70;94.10;;;;;;4908918;29;20462;-86
2023/04/12 17:02:26;;;;;;;1.03;0.87;;;12.70;93.50;;;;;;4915224;29;20470;-84
2023/04/12 17:05:49;;;;;;;;;;;;;;;;;;;;;
2023/04/12 17:08:46;;;;;;;2.20;1.40;;;12.60;92.50;;;;;;4910820;29;20447;-85
2023/04/12 17:11:58;;;;;;;2.77;1.47;;;12.50;92.30;;;;;;4904011;29;20530;-85
2023/04/12 17:15:19;;;;;;;1.67;0.60;;;12.40;92.40;;;;;;4892939;29;20551;-84
2023/04/12 17:18:39;;;;;;;1.30;0.90;;;12.50;92.50;;;;;;4926162;29;20454;-85
2023/04/12 17:21:58;;;;;;;1.30;1.20;;;12.50;92.20;;;;;;4913598;29;20448;-85
2023/04/12 17:24:56;;;;;;;1.40;1.30;;;12.50;92.00;;;;;;4876833;29;20453;-86
2023/04/12 17:31:42;;;;;;;2.37;1.70;;;12.50;92.10;;;;;;4871752;29;20489;-84
2023/04/12 17:36:03;;;;;;;1.37;1.27;;;13.00;90.90;;;;;;4852120;29;20618;-84
2023/04/12 17:38:51;;;;;;;0.60;0.60;;;12.60;91.20;;;;;;4858713;29;20453;-84
2023/04/12 17:45:23;;;;;;;4.50;1.13;;;12.90;90.90;;;;;;4875156;29;20584;-82
2023/04/12 17:51:47;;;;;;;1.40;1.00;;;12.30;91.80;;;;;;4890328;29;20499;-83
2023/04/12 17:55:18;;;;;;;1.47;1.00;;;12.50;92.20;;;;;;4898450;29;20454;-86
2023/04/12 17:58:26;;;;;;;2.10;0.90;;;12.60;91.70;;;;;;4894461;29;20459;-83
2023/04/12 18:01:14;;;;;;;1.37;0.80;;;12.40;91.90;;;;;;4895023;28;20491;-83
2023/04/12 18:04:32;;;;;;;;;;;;;;;;;;;;;
2023/04/12 18:10:41;;;;;;;1.70;0.77;;;12.00;92.50;;;;;;4972914;28;20486;-84
2023/04/12 18:14:03;;;;;;;0.97;0.83;;;11.80;93.40;;;;;;4996305;28;20550;-84
2023/04/12 18:17:17;;;;;;;1.37;0.80;;;12.10;93.00;;;;;;4991090;28;20428;-85
2023/04/12 18:20:28;;;;;;;1.80;1.00;;;12.00;92.40;;;;;;4976566;28;20887;-85
2023/04/12 18:24:00;;;;;;;1.63;1.53;;;11.80;92.60;;;;;;4992794;28;20419;-84
2023/04/12 18:26:46;;;;;;;3.23;1.30;;;11.80;93.20;;;;;;4991112;28;20480;-84
2023/04/12 18:30:18;;;;;;;;;;;;;;;;;;;;;
2023/04/12 18:33:30;;;;;;;1.47;1.10;;;11.90;93.60;;;;;;4978552;28;20547;-85
2023/04/12 18:43:12;;;;;;;1.30;1.20;;;11.80;94.80;;;;;;4974818;28;20567;-86
2023/04/12 18:46:27;;;;;;;;;;;;;;;;;;;;;
2023/04/12 18:49:32;;;;;;;1.67;1.57;;;11.70;94.70;;;;;;4989007;28;20456;-84
2023/04/12 18:53:03;;;;;;;1.73;1.10;;;11.80;94.70;;;;;;4972466;28;20532;-85